Прогноз погоды TAF Витязево

СКИДКИ НА СМАРТФОНЫ!

Прогноз погоды TAF: 
TAF URKA 061955Z 0621/0721 10003G08MPS 9999 OVC020 TEMPO 0621/0706 -FZRA BECMG 0706/0707 BKN020CB TEMPO 0707/0721 -SHRA
Аэропорт подробнее: 
Регион: 

Скидки на навигаторы!